createdAt,value
2017-09-28T00:01:28.146Z,14.50
2017-09-28T00:03:55.921Z,14.50
2017-09-28T00:06:24.262Z,14.50
2017-09-28T00:08:51.904Z,14.50
2017-09-28T00:11:19.683Z,14.60
2017-09-28T00:13:48.018Z,14.50
2017-09-28T00:16:15.650Z,14.50
2017-09-28T00:18:43.271Z,14.50
2017-09-28T00:21:10.842Z,14.40
2017-09-28T00:23:38.417Z,14.40
2017-09-28T00:26:06.802Z,14.30
2017-09-28T00:28:34.378Z,14.30
2017-09-28T00:31:01.959Z,14.40
2017-09-28T00:33:30.534Z,14.40
2017-09-28T00:35:58.869Z,14.40
2017-09-28T00:38:26.438Z,14.40
2017-09-28T00:40:54.822Z,14.40
2017-09-28T00:43:22.393Z,14.40
2017-09-28T00:45:49.972Z,14.40
2017-09-28T00:48:17.601Z,14.40
2017-09-28T00:50:45.175Z,14.40
2017-09-28T00:53:13.506Z,14.40
2017-09-28T00:55:41.222Z,14.40
2017-09-28T00:58:08.900Z,14.30
2017-09-28T01:00:36.470Z,14.30
2017-09-28T01:03:04.230Z,14.20
2017-09-28T01:05:32.566Z,14.30
2017-09-28T01:08:00.914Z,14.20
2017-09-28T01:10:28.543Z,14.20
2017-09-28T01:12:56.205Z,14.20
2017-09-28T01:15:23.778Z,14.10
2017-09-28T01:17:52.355Z,14.00
2017-09-28T01:22:47.122Z,14.00
2017-09-28T01:25:15.522Z,13.90
2017-09-28T01:27:43.103Z,13.90
2017-09-28T01:30:10.671Z,14.00
2017-09-28T01:32:39.111Z,13.90
2017-09-28T01:35:06.689Z,13.90
2017-09-28T01:37:35.039Z,13.90
2017-09-28T01:40:02.680Z,13.80
2017-09-28T01:42:30.258Z,13.90
2017-09-28T01:44:57.830Z,13.90
2017-09-28T01:47:25.455Z,13.90
2017-09-28T01:49:53.044Z,13.80
2017-09-28T01:52:20.627Z,13.80
2017-09-28T01:54:48.253Z,13.80
2017-09-28T01:57:16.594Z,13.80
2017-09-28T01:59:44.930Z,13.90
2017-09-28T02:02:12.901Z,13.90
2017-09-28T02:04:40.479Z,13.90
2017-09-28T02:07:08.823Z,13.90
2017-09-28T02:09:36.480Z,13.90
2017-09-28T02:12:04.818Z,13.80
2017-09-28T02:14:32.447Z,13.80
2017-09-28T02:17:00.073Z,13.70
2017-09-28T02:19:27.638Z,13.70
2017-09-28T02:21:55.207Z,13.60
2017-09-28T02:24:22.935Z,13.70
2017-09-28T02:26:50.524Z,13.70
2017-09-28T02:29:18.914Z,13.70
2017-09-28T02:31:46.534Z,13.70
2017-09-28T02:34:14.129Z,13.70
2017-09-28T02:36:41.780Z,13.70
2017-09-28T02:39:09.483Z,13.70
2017-09-28T02:41:37.063Z,13.60
2017-09-28T02:44:04.716Z,13.70
2017-09-28T02:46:32.498Z,13.70
2017-09-28T02:49:00.839Z,13.70
2017-09-28T02:51:28.414Z,13.70
2017-09-28T02:53:56.046Z,13.70
2017-09-28T02:56:24.397Z,13.70
2017-09-28T02:58:51.971Z,13.70
2017-09-28T03:01:19.817Z,13.70
2017-09-28T03:03:47.397Z,13.70
2017-09-28T03:06:14.979Z,13.80
2017-09-28T03:08:43.574Z,13.70
2017-09-28T03:11:11.155Z,13.70
2017-09-28T03:13:38.739Z,13.70
2017-09-28T03:16:07.122Z,13.70
2017-09-28T03:18:34.698Z,13.70
2017-09-28T03:21:02.271Z,13.70
2017-09-28T03:23:29.893Z,13.70
2017-09-28T03:25:57.463Z,13.70
2017-09-28T03:28:25.050Z,13.70
2017-09-28T03:30:52.698Z,13.70
2017-09-28T03:33:20.695Z,13.70
2017-09-28T03:35:48.270Z,13.70
2017-09-28T03:38:18.346Z,13.70
2017-09-28T03:40:48.147Z,13.70
2017-09-28T03:43:15.779Z,13.70
2017-09-28T03:45:43.401Z,13.60
2017-09-28T03:48:10.970Z,13.60
2017-09-28T03:50:40.062Z,13.60
2017-09-28T03:53:07.786Z,13.60
2017-09-28T03:55:35.362Z,13.60
2017-09-28T03:58:02.938Z,13.60
2017-09-28T04:00:30.678Z,13.60
2017-09-28T04:02:58.272Z,13.70
2017-09-28T04:05:25.855Z,13.60
2017-09-28T04:07:54.250Z,13.60
2017-09-28T04:10:21.824Z,13.60
2017-09-28T04:12:49.401Z,13.60
2017-09-28T04:15:17.888Z,13.60
2017-09-28T04:17:45.474Z,13.60
2017-09-28T04:20:13.057Z,13.60
2017-09-28T04:22:41.628Z,13.50
2017-09-28T04:25:09.966Z,13.50
2017-09-28T04:27:37.538Z,13.50
2017-09-28T04:30:05.956Z,13.50
2017-09-28T04:32:33.531Z,13.50
2017-09-28T04:35:01.869Z,13.50
2017-09-28T04:37:29.593Z,13.50
2017-09-28T04:39:57.170Z,13.50
2017-09-28T04:42:24.741Z,13.50
2017-09-28T04:44:53.302Z,13.40
2017-09-28T04:47:21.642Z,13.50
2017-09-28T04:49:49.220Z,13.40
2017-09-28T04:52:16.843Z,13.50
2017-09-28T04:54:45.187Z,13.50
2017-09-28T04:57:12.766Z,13.40
2017-09-28T04:59:40.512Z,13.50
2017-09-28T05:02:09.106Z,13.40
2017-09-28T05:04:36.783Z,13.40
2017-09-28T05:07:04.401Z,13.40
2017-09-28T05:09:32.077Z,13.40
2017-09-28T05:11:59.650Z,13.30
2017-09-28T05:14:28.042Z,13.30
2017-09-28T05:16:55.617Z,13.30
2017-09-28T05:19:23.197Z,13.20
2017-09-28T05:21:51.698Z,13.30
2017-09-28T05:24:19.266Z,13.30
2017-09-28T05:26:46.846Z,13.30
2017-09-28T05:29:15.358Z,13.30
2017-09-28T05:31:42.938Z,13.30
2017-09-28T05:34:10.514Z,13.30
2017-09-28T05:36:38.906Z,13.40
2017-09-28T05:39:06.488Z,13.40
2017-09-28T05:41:34.062Z,13.40
2017-09-28T05:44:02.454Z,13.60
2017-09-28T05:46:30.031Z,13.50
2017-09-28T05:48:57.607Z,13.60
2017-09-28T05:51:25.997Z,13.70
2017-09-28T05:53:53.582Z,13.70
2017-09-28T05:56:21.228Z,13.80
2017-09-28T05:58:49.018Z,13.80
2017-09-28T06:01:16.602Z,13.80
2017-09-28T06:03:44.190Z,13.80
2017-09-28T06:06:12.774Z,13.80
2017-09-28T06:08:40.357Z,13.90
2017-09-28T06:11:08.021Z,13.90
2017-09-28T06:13:36.671Z,13.90
2017-09-28T06:16:04.246Z,14.00
2017-09-28T06:18:31.823Z,14.00
2017-09-28T06:20:59.458Z,14.10
2017-09-28T06:23:27.795Z,14.10
2017-09-28T06:25:55.362Z,14.20
2017-09-28T06:28:24.653Z,14.20
2017-09-28T06:30:52.994Z,14.20
2017-09-28T06:33:20.570Z,14.20
2017-09-28T06:35:49.834Z,14.20
2017-09-28T06:38:18.174Z,14.20
2017-09-28T06:40:45.762Z,14.20
2017-09-28T06:43:13.570Z,14.10
2017-09-28T06:45:41.154Z,14.10
2017-09-28T06:48:08.847Z,14.10
2017-09-28T06:50:37.113Z,14.10
2017-09-28T06:53:04.690Z,14.10
2017-09-28T06:55:33.211Z,14.20
2017-09-28T06:58:00.999Z,14.20
2017-09-28T07:00:29.357Z,14.30
2017-09-28T07:02:57.698Z,14.30
2017-09-28T07:05:26.285Z,14.40
2017-09-28T07:07:54.638Z,14.40
2017-09-28T07:10:22.980Z,14.50
2017-09-28T07:12:50.795Z,14.50
2017-09-28T07:15:18.364Z,14.50
2017-09-28T07:17:45.929Z,14.50
2017-09-28T07:20:13.562Z,14.40
2017-09-28T07:22:41.910Z,14.40
2017-09-28T07:25:09.485Z,14.40
2017-09-28T07:27:37.105Z,14.40
2017-09-28T07:30:04.679Z,14.40
2017-09-28T07:32:32.253Z,14.30
2017-09-28T07:35:00.102Z,14.40
2017-09-28T07:37:27.671Z,14.40
2017-09-28T07:39:55.242Z,14.40
2017-09-28T07:42:22.854Z,14.40
2017-09-28T07:44:50.431Z,14.40
2017-09-28T07:47:18.002Z,14.50
2017-09-28T07:49:46.561Z,14.60
2017-09-28T07:52:14.122Z,14.60
2017-09-28T07:54:41.703Z,14.60
2017-09-28T07:57:10.320Z,14.60
2017-09-28T07:59:38.660Z,14.70
2017-09-28T08:02:06.236Z,14.70
2017-09-28T08:04:34.629Z,14.80
2017-09-28T08:07:02.930Z,14.70
2017-09-28T08:09:30.840Z,14.90
2017-09-28T08:11:58.482Z,14.90
2017-09-28T08:14:26.446Z,15.00
2017-09-28T08:16:54.019Z,15.20
2017-09-28T08:19:21.755Z,15.30
2017-09-28T08:21:49.327Z,15.30
2017-09-28T08:24:16.905Z,15.40
2017-09-28T08:26:44.527Z,15.40
2017-09-28T08:29:12.867Z,15.50
2017-09-28T08:31:40.643Z,15.40
2017-09-28T08:34:09.145Z,15.60
2017-09-28T08:36:36.713Z,15.60
2017-09-28T08:39:04.314Z,15.70
2017-09-28T08:41:31.930Z,15.70
2017-09-28T08:43:59.508Z,15.70
2017-09-28T08:46:27.074Z,15.80
2017-09-28T08:48:54.795Z,15.70
2017-09-28T08:51:22.382Z,15.60
2017-09-28T08:53:49.950Z,15.70
2017-09-28T08:56:17.707Z,15.60
2017-09-28T08:58:46.047Z,15.60
2017-09-28T09:01:13.609Z,15.60
2017-09-28T09:03:42.002Z,15.60
2017-09-28T09:06:10.020Z,15.60
2017-09-28T09:08:38.359Z,15.50
2017-09-28T09:11:06.139Z,15.50
2017-09-28T09:13:34.516Z,15.60
2017-09-28T09:16:02.092Z,15.60
2017-09-28T09:18:29.709Z,15.60
2017-09-28T09:20:57.277Z,15.50
2017-09-28T09:23:24.842Z,15.50
2017-09-28T09:25:52.480Z,15.50
2017-09-28T09:28:20.050Z,15.40
2017-09-28T09:30:47.669Z,15.40
2017-09-28T09:33:15.633Z,15.50
2017-09-28T09:35:44.705Z,15.40
2017-09-28T09:38:12.279Z,15.40
2017-09-28T09:40:40.658Z,15.50
2017-09-28T09:43:08.227Z,15.50
2017-09-28T09:45:36.097Z,15.50
2017-09-28T09:48:03.790Z,15.60
2017-09-28T09:50:32.859Z,15.90
2017-09-28T09:53:00.429Z,15.90
2017-09-28T09:55:28.259Z,16.00
2017-09-28T09:57:56.586Z,15.80
2017-09-28T10:00:24.231Z,15.80
2017-09-28T10:02:52.019Z,15.80
2017-09-28T10:05:20.347Z,15.80
2017-09-28T10:08:03.279Z,15.80
2017-09-28T10:10:46.065Z,16.00
2017-09-28T10:13:25.821Z,16.00
2017-09-28T10:16:08.351Z,16.00
2017-09-28T10:18:36.154Z,15.90
2017-09-28T10:21:04.482Z,16.00
2017-09-28T10:23:32.097Z,15.90
2017-09-28T10:25:59.905Z,15.90
2017-09-28T10:28:29.295Z,15.80
2017-09-28T10:30:57.627Z,15.80
2017-09-28T10:33:29.054Z,15.70
2017-09-28T10:35:56.622Z,15.70
2017-09-28T10:38:24.365Z,15.60
2017-09-28T10:40:52.093Z,15.60
2017-09-28T10:43:19.671Z,15.50
2017-09-28T10:45:48.797Z,15.50
2017-09-28T10:48:16.563Z,15.50
2017-09-28T10:50:45.654Z,15.60
2017-09-28T10:53:14.742Z,15.50
2017-09-28T10:55:42.502Z,15.50
2017-09-28T10:58:10.835Z,15.50
2017-09-28T11:00:38.419Z,15.50
2017-09-28T11:03:06.038Z,15.40
2017-09-28T11:05:33.602Z,15.50
2017-09-28T11:08:01.935Z,15.60
2017-09-28T11:10:29.706Z,15.50
2017-09-28T11:12:58.038Z,15.70
2017-09-28T11:15:26.418Z,15.70
2017-09-28T11:17:54.578Z,15.70
2017-09-28T11:20:24.810Z,15.80
2017-09-28T11:22:52.377Z,15.70
2017-09-28T11:25:20.004Z,15.80
2017-09-28T11:27:47.578Z,15.80
2017-09-28T11:30:15.516Z,15.80
2017-09-28T11:32:49.466Z,15.80
2017-09-28T11:35:19.108Z,15.70
2017-09-28T11:37:46.669Z,15.80
2017-09-28T11:40:17.274Z,15.70
2017-09-28T11:42:44.848Z,15.70
2017-09-28T11:45:12.412Z,15.70
2017-09-28T11:47:40.897Z,15.70
2017-09-28T11:50:09.193Z,15.60
2017-09-28T11:52:36.758Z,15.60
2017-09-28T11:55:04.379Z,15.60
2017-09-28T11:57:31.950Z,15.70
2017-09-28T11:59:59.521Z,15.70
2017-09-28T12:02:27.151Z,15.60
2017-09-28T12:04:55.487Z,15.40
2017-09-28T12:07:23.070Z,15.40
2017-09-28T12:09:50.701Z,15.40
2017-09-28T12:12:19.042Z,15.30
2017-09-28T12:14:46.619Z,15.30
2017-09-28T12:17:14.527Z,15.30
2017-09-28T12:19:42.102Z,15.30
2017-09-28T12:22:10.530Z,15.20
2017-09-28T12:24:38.295Z,15.20
2017-09-28T12:27:05.871Z,15.20
2017-09-28T12:29:33.451Z,15.20
2017-09-28T12:32:01.261Z,15.20
2017-09-28T12:34:29.598Z,15.30
2017-09-28T12:36:58.683Z,15.30
2017-09-28T12:39:26.306Z,15.30
2017-09-28T12:41:53.882Z,15.40
2017-09-28T12:44:22.217Z,15.40
2017-09-28T12:46:50.000Z,15.30
2017-09-28T12:49:19.134Z,15.40
2017-09-28T12:51:46.717Z,15.40
2017-09-28T12:54:15.293Z,15.30
2017-09-28T12:56:43.812Z,15.30
2017-09-28T12:59:11.436Z,15.20
2017-09-28T13:01:39.107Z,15.30
2017-09-28T13:04:06.865Z,15.30
2017-09-28T13:06:34.449Z,15.30
2017-09-28T13:09:02.147Z,15.30
2017-09-28T13:11:30.919Z,15.30
2017-09-28T13:13:58.648Z,15.40
2017-09-28T13:16:26.272Z,15.30
2017-09-28T13:18:53.854Z,15.40
2017-09-28T13:21:21.430Z,15.30
2017-09-28T13:23:49.812Z,15.40
2017-09-28T13:26:17.381Z,15.40
2017-09-28T13:28:44.961Z,15.40
2017-09-28T13:31:13.606Z,15.40
2017-09-28T13:33:41.190Z,15.40
2017-09-28T13:36:09.530Z,15.40
2017-09-28T13:38:39.145Z,15.40
2017-09-28T13:41:07.492Z,15.40
2017-09-28T13:43:35.887Z,15.40
2017-09-28T13:46:05.514Z,15.40
2017-09-28T13:48:33.086Z,15.40
2017-09-28T13:51:00.663Z,15.40
2017-09-28T13:53:28.324Z,15.40
2017-09-28T13:55:55.900Z,15.40
2017-09-28T13:58:23.475Z,15.40
2017-09-28T14:00:53.091Z,15.40
2017-09-28T14:03:20.685Z,15.40
2017-09-28T14:05:50.001Z,15.40
2017-09-28T14:08:21.082Z,15.50
2017-09-28T14:10:48.655Z,15.50
2017-09-28T14:13:16.310Z,15.50
2017-09-28T14:15:46.373Z,15.60
2017-09-28T14:18:14.703Z,15.60
2017-09-28T14:20:42.295Z,15.70
2017-09-28T14:23:10.022Z,15.70
2017-09-28T14:25:37.685Z,15.80
2017-09-28T14:28:05.267Z,15.70
2017-09-28T14:30:33.746Z,15.70
2017-09-28T14:33:01.325Z,15.70
2017-09-28T14:35:28.930Z,15.70
2017-09-28T14:37:57.323Z,15.70
2017-09-28T14:40:24.911Z,15.60
2017-09-28T14:42:52.496Z,15.70
2017-09-28T14:45:20.246Z,15.60
2017-09-28T14:47:47.817Z,15.60
2017-09-28T14:50:15.412Z,15.70
2017-09-28T14:52:45.407Z,15.60
2017-09-28T14:55:13.747Z,15.60
2017-09-28T14:57:41.392Z,15.60
2017-09-28T15:00:09.127Z,15.60
2017-09-28T15:02:36.731Z,15.50
2017-09-28T15:05:04.344Z,15.50
2017-09-28T15:07:32.747Z,15.50
2017-09-28T15:10:03.141Z,15.50
2017-09-28T15:12:32.308Z,15.50
2017-09-28T15:15:02.133Z,15.50
2017-09-28T15:17:31.013Z,15.50
2017-09-28T15:20:00.315Z,15.50
2017-09-28T15:22:29.399Z,15.50
2017-09-28T15:24:57.329Z,15.50
2017-09-28T15:27:26.390Z,15.50
2017-09-28T15:29:55.047Z,15.60
2017-09-28T15:32:23.919Z,15.60
2017-09-28T15:34:51.903Z,15.60
2017-09-28T15:37:20.378Z,15.60
2017-09-28T15:39:50.101Z,15.60
2017-09-28T15:42:18.051Z,15.70
2017-09-28T15:44:45.814Z,15.70
2017-09-28T15:47:14.223Z,15.60
2017-09-28T15:49:41.844Z,15.60
2017-09-28T15:52:09.718Z,15.60
2017-09-28T15:54:37.293Z,15.60
2017-09-28T15:57:04.915Z,15.60
2017-09-28T15:59:32.740Z,15.60
2017-09-28T16:02:00.378Z,15.60
2017-09-28T16:04:27.980Z,15.60
2017-09-28T16:06:55.626Z,15.60
2017-09-28T16:09:23.986Z,15.70
2017-09-28T16:11:51.569Z,15.70
2017-09-28T16:14:19.969Z,15.70
2017-09-28T16:16:47.547Z,15.70
2017-09-28T16:19:15.129Z,15.70
2017-09-28T16:21:42.972Z,15.60
2017-09-28T16:24:10.619Z,15.70
2017-09-28T16:26:38.195Z,15.70
2017-09-28T16:29:05.831Z,15.60
2017-09-28T16:31:33.416Z,15.60
2017-09-28T16:34:00.986Z,15.50
2017-09-28T16:36:29.383Z,15.50
2017-09-28T16:38:57.042Z,15.50
2017-09-28T16:41:24.619Z,15.50
2017-09-28T16:43:53.856Z,15.40
2017-09-28T16:46:21.459Z,15.40
2017-09-28T16:48:49.799Z,15.30
2017-09-28T16:51:17.427Z,15.30
2017-09-28T16:53:45.002Z,15.30
2017-09-28T16:56:15.370Z,15.30
2017-09-28T16:58:42.994Z,15.30
2017-09-28T17:01:13.938Z,15.30
2017-09-28T17:03:41.510Z,15.30
2017-09-28T17:06:09.243Z,15.30
2017-09-28T17:08:36.823Z,15.30
2017-09-28T17:11:07.642Z,15.20
2017-09-28T17:13:36.040Z,15.20
2017-09-28T17:16:03.612Z,15.20
2017-09-28T17:18:31.191Z,15.10
2017-09-28T17:20:59.570Z,15.10
2017-09-28T17:23:27.148Z,15.10
2017-09-28T17:25:56.645Z,15.10
2017-09-28T17:28:25.115Z,15.00
2017-09-28T17:30:53.495Z,14.90
2017-09-28T17:33:21.086Z,14.90
2017-09-28T17:35:48.807Z,14.90
2017-09-28T17:38:16.889Z,14.90
2017-09-28T17:40:44.481Z,14.80
2017-09-28T17:43:12.274Z,14.80
2017-09-28T17:45:39.857Z,14.80
2017-09-28T17:48:07.441Z,14.80
2017-09-28T17:50:35.850Z,14.70
2017-09-28T17:53:03.447Z,14.70
2017-09-28T17:55:34.564Z,14.70
2017-09-28T17:58:02.203Z,14.70
2017-09-28T18:00:29.786Z,14.70
2017-09-28T18:02:57.380Z,14.80
2017-09-28T18:05:25.042Z,14.80
2017-09-28T18:07:53.587Z,14.70
2017-09-28T18:10:21.154Z,14.80
2017-09-28T18:12:49.542Z,14.80
2017-09-28T18:15:17.115Z,14.80
2017-09-28T18:17:44.695Z,14.80
2017-09-28T18:20:13.859Z,14.80
2017-09-28T18:22:42.248Z,14.80
2017-09-28T18:25:09.826Z,14.80
2017-09-28T18:27:37.455Z,14.80
2017-09-28T18:30:05.936Z,14.80
2017-09-28T18:32:33.519Z,14.80
2017-09-28T18:35:02.782Z,14.80
2017-09-28T18:37:32.598Z,14.80
2017-09-28T18:40:03.804Z,14.80
2017-09-28T18:42:32.696Z,14.80
2017-09-28T18:45:00.986Z,14.80
2017-09-28T18:47:33.448Z,14.80
2017-09-28T18:50:01.189Z,14.80
2017-09-28T18:52:30.094Z,14.80
2017-09-28T18:54:57.984Z,14.80
2017-09-28T18:57:25.743Z,14.80
2017-09-28T18:59:53.764Z,14.80
2017-09-28T19:02:24.262Z,14.80
2017-09-28T19:04:52.069Z,14.80
2017-09-28T19:07:20.652Z,14.90
2017-09-28T19:09:48.515Z,14.80
2017-09-28T19:12:17.349Z,14.90
2017-09-28T19:14:44.954Z,14.80
2017-09-28T19:17:14.338Z,14.90
2017-09-28T19:19:42.122Z,14.90
2017-09-28T19:22:09.899Z,14.90
2017-09-28T19:24:37.716Z,14.70
2017-09-28T19:27:05.928Z,14.90
2017-09-28T19:29:35.399Z,14.90
2017-09-28T19:32:04.014Z,15.00
2017-09-28T19:34:32.119Z,15.00
2017-09-28T19:36:59.818Z,15.10
2017-09-28T19:39:27.539Z,15.00
2017-09-28T19:41:55.227Z,15.00
2017-09-28T19:44:24.930Z,14.90
2017-09-28T19:46:53.288Z,14.90
2017-09-28T19:49:21.273Z,14.90
2017-09-28T19:51:49.746Z,15.00
2017-09-28T19:54:20.394Z,15.00
2017-09-28T19:56:51.054Z,15.00
2017-09-28T19:59:19.031Z,15.00
2017-09-28T20:01:47.368Z,15.00
2017-09-28T20:04:14.945Z,15.00
2017-09-28T20:06:43.342Z,15.00
2017-09-28T20:09:10.921Z,15.00
2017-09-28T20:11:38.512Z,14.90
2017-09-28T20:14:06.242Z,14.90
2017-09-28T20:16:34.575Z,14.90
2017-09-28T20:19:02.191Z,14.90
2017-09-28T20:21:29.925Z,14.90
2017-09-28T20:23:57.512Z,14.90
2017-09-28T20:26:25.106Z,14.90
2017-09-28T20:28:52.889Z,15.00
2017-09-28T20:31:20.471Z,15.00
2017-09-28T20:33:48.826Z,14.90
2017-09-28T20:36:17.230Z,14.90
2017-09-28T20:38:44.811Z,14.90
2017-09-28T20:41:12.399Z,15.00
2017-09-28T20:43:40.028Z,15.00
2017-09-28T20:46:08.387Z,15.00
2017-09-28T20:48:36.751Z,14.90
2017-09-28T20:51:05.159Z,15.00
2017-09-28T20:53:32.763Z,15.00
2017-09-28T20:56:00.350Z,15.00
2017-09-28T20:58:28.160Z,15.00
2017-09-28T21:00:56.519Z,15.00
2017-09-28T21:03:24.134Z,14.90
2017-09-28T21:05:51.790Z,15.00
2017-09-28T21:08:20.131Z,14.90
2017-09-28T21:10:47.706Z,15.00
2017-09-28T21:13:16.274Z,15.00
2017-09-28T21:15:44.619Z,15.00
2017-09-28T21:18:12.198Z,15.00
2017-09-28T21:20:39.983Z,15.00
2017-09-28T21:23:07.563Z,15.00
2017-09-28T21:25:35.154Z,15.00
2017-09-28T21:28:02.880Z,15.00
2017-09-28T21:30:30.458Z,15.00
2017-09-28T21:32:58.043Z,15.00
2017-09-28T21:35:25.667Z,15.00
2017-09-28T21:37:53.247Z,15.00
2017-09-28T21:40:21.589Z,15.00
2017-09-28T21:42:49.228Z,15.00
2017-09-28T21:45:16.804Z,15.00
2017-09-28T21:47:45.144Z,15.00
2017-09-28T21:50:12.774Z,15.00
2017-09-28T21:52:40.356Z,15.10
2017-09-28T21:55:07.947Z,15.10
2017-09-28T21:57:35.590Z,15.10
2017-09-28T22:00:03.167Z,15.10
2017-09-28T22:02:30.746Z,15.10
2017-09-28T22:04:58.373Z,15.10
2017-09-28T22:07:26.721Z,15.00
2017-09-28T22:09:55.072Z,15.00
2017-09-28T22:12:22.843Z,15.00
2017-09-28T22:14:51.190Z,15.00
2017-09-28T22:17:18.775Z,15.00
2017-09-28T22:19:46.403Z,15.00
2017-09-28T22:22:13.993Z,15.00
2017-09-28T22:24:41.571Z,15.00
2017-09-28T22:27:09.975Z,15.10
2017-09-28T22:29:37.560Z,15.10
2017-09-28T22:32:05.130Z,15.10
2017-09-28T22:34:33.519Z,15.10
2017-09-28T22:37:01.092Z,15.10
2017-09-28T22:39:28.681Z,15.00
2017-09-28T22:41:57.076Z,15.00
2017-09-28T22:44:24.649Z,15.00
2017-09-28T22:46:52.234Z,15.00
2017-09-28T22:49:20.660Z,15.00
2017-09-28T22:51:48.239Z,15.00
2017-09-28T22:54:16.578Z,14.90
2017-09-28T22:56:44.343Z,14.90
2017-09-28T22:59:12.691Z,14.80
2017-09-28T23:01:40.285Z,14.80
2017-09-28T23:04:07.911Z,14.80
2017-09-28T23:06:36.251Z,14.90
2017-09-28T23:09:03.835Z,14.90
2017-09-28T23:11:31.571Z,15.00
2017-09-28T23:13:59.155Z,15.00
2017-09-28T23:16:26.734Z,14.90
2017-09-28T23:18:55.318Z,14.90
2017-09-28T23:21:23.650Z,14.90
2017-09-28T23:23:51.233Z,14.90
2017-09-28T23:26:18.850Z,14.80
2017-09-28T23:28:47.199Z,14.80
2017-09-28T23:31:14.781Z,14.70
2017-09-28T23:33:42.409Z,14.80
2017-09-28T23:36:10.770Z,14.80
2017-09-28T23:38:39.197Z,14.70
2017-09-28T23:41:06.842Z,14.80
2017-09-28T23:43:34.428Z,14.80
2017-09-28T23:46:02.776Z,14.80
2017-09-28T23:48:31.914Z,14.80
2017-09-28T23:50:59.492Z,14.80
2017-09-28T23:53:27.067Z,14.80
2017-09-28T23:55:54.906Z,14.90
2017-09-28T23:58:23.247Z,14.90
